Terminal Aerodrome Forecast
Issued by NWS Louisville, KY

Home | Current Version | Previous Version | Text Only | Print | Product List | Glossary On
Versions: 1 2 3 4 5 6 7 8 9 10 11 12 13 14 15 16 17 18 19
000
FTUS43 KLMK 271900 AAA
TAFLEX
TAF AMD
KLEX 271902Z 2719/2818 35005KT P6SM SCT040
     FM272100 35004KT P6SM SCT100
     FM280300 02004KT P6SM SCT250=

USA.gov is the U.S. government's official web portal to all federal, state and local government web resources and services.